sensor_id;sensor_type;location;lat;lon;timestamp;P1;durP1;ratioP1;P2;durP2;ratioP2
177;SDS011;77;48.792;9.032;2022-12-22T07:11:25;8.37;;;3.30;;
177;SDS011;77;48.792;9.032;2022-12-22T07:13:50;8.97;;;2.93;;
177;SDS011;77;48.792;9.032;2022-12-22T07:16:15;7.20;;;2.78;;
177;SDS011;77;48.792;9.032;2022-12-22T07:18:41;9.37;;;2.80;;
177;SDS011;77;48.792;9.032;2022-12-22T07:21:07;10.03;;;2.97;;
177;SDS011;77;48.792;9.032;2022-12-22T07:23:33;10.70;;;2.93;;
177;SDS011;77;48.792;9.032;2022-12-22T07:25:58;10.63;;;2.70;;
177;SDS011;77;48.792;9.032;2022-12-22T07:28:25;7.67;;;2.97;;
177;SDS011;77;48.792;9.032;2022-12-22T07:30:50;9.90;;;2.90;;
177;SDS011;77;48.792;9.032;2022-12-22T07:33:15;7.67;;;2.70;;
177;SDS011;77;48.792;9.032;2022-12-22T07:35:41;9.13;;;2.80;;
177;SDS011;77;48.792;9.032;2022-12-22T07:38:06;10.95;;;3.13;;
177;SDS011;77;48.792;9.032;2022-12-22T07:40:31;7.93;;;2.70;;
177;SDS011;77;48.792;9.032;2022-12-22T07:42:56;10.60;;;3.00;;
177;SDS011;77;48.792;9.032;2022-12-22T07:45:23;11.40;;;3.50;;
177;SDS011;77;48.792;9.032;2022-12-22T07:47:49;8.87;;;2.63;;
177;SDS011;77;48.792;9.032;2022-12-22T07:50:15;7.90;;;2.77;;
177;SDS011;77;48.792;9.032;2022-12-22T07:52:40;8.17;;;2.60;;
177;SDS011;77;48.792;9.032;2022-12-22T07:55:06;9.65;;;3.00;;
177;SDS011;77;48.792;9.032;2022-12-22T07:57:32;7.20;;;2.53;;
177;SDS011;77;48.792;9.032;2022-12-22T07:59:57;7.18;;;2.47;;
177;SDS011;77;48.792;9.032;2022-12-22T08:02:23;8.05;;;2.60;;
177;SDS011;77;48.792;9.032;2022-12-22T08:04:48;5.40;;;2.57;;
177;SDS011;77;48.792;9.032;2022-12-22T08:07:13;11.88;;;3.00;;
177;SDS011;77;48.792;9.032;2022-12-22T08:09:39;8.10;;;3.00;;
177;SDS011;77;48.792;9.032;2022-12-22T08:12:04;8.53;;;3.23;;
177;SDS011;77;48.792;9.032;2022-12-22T08:14:29;8.20;;;2.63;;
177;SDS011;77;48.792;9.032;2022-12-22T08:16:54;7.90;;;3.00;;
177;SDS011;77;48.792;9.032;2022-12-22T08:19:21;6.72;;;2.50;;
177;SDS011;77;48.792;9.032;2022-12-22T08:21:46;7.87;;;2.83;;
177;SDS011;77;48.792;9.032;2022-12-22T08:24:11;7.38;;;2.50;;
177;SDS011;77;48.792;9.032;2022-12-22T08:26:37;10.13;;;2.45;;
177;SDS011;77;48.792;9.032;2022-12-22T08:29:04;8.00;;;2.60;;
177;SDS011;77;48.792;9.032;2022-12-22T08:31:30;6.23;;;2.80;;
177;SDS011;77;48.792;9.032;2022-12-22T08:33:56;5.80;;;2.40;;
177;SDS011;77;48.792;9.032;2022-12-22T08:36:23;7.37;;;2.60;;
177;SDS011;77;48.792;9.032;2022-12-22T08:38:48;8.77;;;2.70;;
177;SDS011;77;48.792;9.032;2022-12-22T08:41:14;8.17;;;2.87;;
177;SDS011;77;48.792;9.032;2022-12-22T08:43:40;8.00;;;2.43;;
177;SDS011;77;48.792;9.032;2022-12-22T08:46:05;7.57;;;2.60;;
177;SDS011;77;48.792;9.032;2022-12-22T08:48:30;7.47;;;2.60;;
177;SDS011;77;48.792;9.032;2022-12-22T08:50:56;9.63;;;2.70;;
177;SDS011;77;48.792;9.032;2022-12-22T08:53:22;10.90;;;3.40;;
177;SDS011;77;48.792;9.032;2022-12-22T08:55:51;6.80;;;2.50;;
177;SDS011;77;48.792;9.032;2022-12-22T08:58:16;6.57;;;2.70;;
177;SDS011;77;48.792;9.032;2022-12-22T09:00:41;7.40;;;2.70;;
177;SDS011;77;48.792;9.032;2022-12-22T09:03:06;8.38;;;2.67;;
177;SDS011;77;48.792;9.032;2022-12-22T09:05:31;12.02;;;2.72;;
177;SDS011;77;48.792;9.032;2022-12-22T09:07:56;9.13;;;2.53;;
177;SDS011;77;48.792;9.032;2022-12-22T09:10:23;8.65;;;3.13;;
177;SDS011;77;48.792;9.032;2022-12-22T09:12:48;8.70;;;2.63;;
177;SDS011;77;48.792;9.032;2022-12-22T09:15:13;7.20;;;2.63;;
177;SDS011;77;48.792;9.032;2022-12-22T09:17:38;10.13;;;3.10;;
177;SDS011;77;48.792;9.032;2022-12-22T09:20:04;8.80;;;2.50;;
177;SDS011;77;48.792;9.032;2022-12-22T09:22:29;10.63;;;2.80;;
177;SDS011;77;48.792;9.032;2022-12-22T09:24:54;11.77;;;2.95;;
177;SDS011;77;48.792;9.032;2022-12-22T09:27:21;12.15;;;3.13;;
177;SDS011;77;48.792;9.032;2022-12-22T09:29:46;9.70;;;2.90;;
177;SDS011;77;48.792;9.032;2022-12-22T09:32:11;10.35;;;2.67;;
177;SDS011;77;48.792;9.032;2022-12-22T09:34:36;9.47;;;2.73;;
177;SDS011;77;48.792;9.032;2022-12-22T09:37:02;10.25;;;2.75;;
177;SDS011;77;48.792;9.032;2022-12-22T09:41:59;11.70;;;2.70;;
177;SDS011;77;48.792;9.032;2022-12-22T09:44:26;6.47;;;2.50;;
177;SDS011;77;48.792;9.032;2022-12-22T09:46:54;7.70;;;2.70;;
177;SDS011;77;48.792;9.032;2022-12-22T09:49:19;9.03;;;3.03;;
177;SDS011;77;48.792;9.032;2022-12-22T09:51:46;7.20;;;2.37;;
177;SDS011;77;48.792;9.032;2022-12-22T09:54:12;7.70;;;2.30;;
177;SDS011;77;48.792;9.032;2022-12-22T09:56:38;8.37;;;2.80;;
177;SDS011;77;48.792;9.032;2022-12-22T09:59:04;5.50;;;2.27;;
177;SDS011;77;48.792;9.032;2022-12-22T10:01:38;8.00;;;2.53;;
177;SDS011;77;48.792;9.032;2022-12-22T10:04:09;11.23;;;2.80;;
177;SDS011;77;48.792;9.032;2022-12-22T10:06:39;7.60;;;2.70;;
177;SDS011;77;48.792;9.032;2022-12-22T10:09:10;7.07;;;2.50;;
177;SDS011;77;48.792;9.032;2022-12-22T10:11:37;8.30;;;2.33;;
177;SDS011;77;48.792;9.032;2022-12-22T10:14:02;8.95;;;2.65;;
177;SDS011;77;48.792;9.032;2022-12-22T10:16:27;5.10;;;2.10;;
177;SDS011;77;48.792;9.032;2022-12-22T10:18:56;6.10;;;2.40;;
177;SDS011;77;48.792;9.032;2022-12-22T10:21:21;8.17;;;2.63;;
177;SDS011;77;48.792;9.032;2022-12-22T10:23:46;7.53;;;2.63;;
177;SDS011;77;48.792;9.032;2022-12-22T10:26:12;7.13;;;2.20;;
177;SDS011;77;48.792;9.032;2022-12-22T10:28:39;6.70;;;2.30;;
177;SDS011;77;48.792;9.032;2022-12-22T10:31:11;10.57;;;2.50;;
177;SDS011;77;48.792;9.032;2022-12-22T10:33:37;7.07;;;2.50;;
177;SDS011;77;48.792;9.032;2022-12-22T10:36:04;7.33;;;2.63;;
177;SDS011;77;48.792;9.032;2022-12-22T10:38:30;6.73;;;2.30;;
177;SDS011;77;48.792;9.032;2022-12-22T10:40:56;7.30;;;2.30;;
177;SDS011;77;48.792;9.032;2022-12-22T10:43:22;8.00;;;2.70;;
177;SDS011;77;48.792;9.032;2022-12-22T10:45:48;5.60;;;2.20;;
177;SDS011;77;48.792;9.032;2022-12-22T10:48:14;5.87;;;2.27;;
177;SDS011;77;48.792;9.032;2022-12-22T10:50:42;5.43;;;2.60;;
177;SDS011;77;48.792;9.032;2022-12-22T10:53:09;6.60;;;2.27;;
177;SDS011;77;48.792;9.032;2022-12-22T10:55:35;6.40;;;2.50;;
177;SDS011;77;48.792;9.032;2022-12-22T10:58:05;9.23;;;2.70;;
177;SDS011;77;48.792;9.032;2022-12-22T11:00:37;4.73;;;2.03;;
177;SDS011;77;48.792;9.032;2022-12-22T11:03:03;7.57;;;2.37;;
177;SDS011;77;48.792;9.032;2022-12-22T11:05:28;6.60;;;2.10;;
177;SDS011;77;48.792;9.032;2022-12-22T11:07:55;7.23;;;2.50;;
177;SDS011;77;48.792;9.032;2022-12-22T11:10:25;3.87;;;2.00;;
177;SDS011;77;48.792;9.032;2022-12-22T11:13:04;5.13;;;2.53;;
177;SDS011;77;48.792;9.032;2022-12-22T11:15:32;7.27;;;2.17;;
177;SDS011;77;48.792;9.032;2022-12-22T11:18:00;4.57;;;2.10;;
177;SDS011;77;48.792;9.032;2022-12-22T11:20:32;4.03;;;1.83;;
177;SDS011;77;48.792;9.032;2022-12-22T11:22:59;7.30;;;2.20;;
177;SDS011;77;48.792;9.032;2022-12-22T11:25:30;7.20;;;1.93;;
177;SDS011;77;48.792;9.032;2022-12-22T11:28:05;3.90;;;1.80;;
177;SDS011;77;48.792;9.032;2022-12-22T11:30:34;4.10;;;1.80;;
177;SDS011;77;48.792;9.032;2022-12-22T11:33:08;6.53;;;2.27;;
177;SDS011;77;48.792;9.032;2022-12-22T11:35:44;4.27;;;1.80;;
177;SDS011;77;48.792;9.032;2022-12-22T11:38:13;3.30;;;1.60;;
177;SDS011;77;48.792;9.032;2022-12-22T11:40:41;3.77;;;1.97;;
177;SDS011;77;48.792;9.032;2022-12-22T11:43:12;4.87;;;2.10;;
177;SDS011;77;48.792;9.032;2022-12-22T11:45:46;5.07;;;2.17;;
177;SDS011;77;48.792;9.032;2022-12-22T11:48:19;5.43;;;1.73;;
177;SDS011;77;48.792;9.032;2022-12-22T11:50:49;4.27;;;1.90;;
177;SDS011;77;48.792;9.032;2022-12-22T11:56:02;4.83;;;1.73;;
177;SDS011;77;48.792;9.032;2022-12-22T11:58:32;3.17;;;1.70;;
177;SDS011;77;48.792;9.032;2022-12-22T12:01:07;3.13;;;1.80;;
177;SDS011;77;48.792;9.032;2022-12-22T12:03:50;4.37;;;1.60;;
177;SDS011;77;48.792;9.032;2022-12-22T12:09:05;2.60;;;1.50;;
177;SDS011;77;48.792;9.032;2022-12-22T12:11:37;5.30;;;1.83;;
177;SDS011;77;48.792;9.032;2022-12-22T12:14:04;4.50;;;1.77;;
177;SDS011;77;48.792;9.032;2022-12-22T12:16:38;3.40;;;1.60;;
177;SDS011;77;48.792;9.032;2022-12-22T12:19:24;3.07;;;1.90;;
177;SDS011;77;48.792;9.032;2022-12-22T12:21:52;3.87;;;2.03;;
177;SDS011;77;48.792;9.032;2022-12-22T12:24:24;3.10;;;1.70;;
177;SDS011;77;48.792;9.032;2022-12-22T12:26:57;5.27;;;1.90;;
177;SDS011;77;48.792;9.032;2022-12-22T12:29:24;4.10;;;1.90;;
177;SDS011;77;48.792;9.032;2022-12-22T12:31:52;4.17;;;1.87;;
177;SDS011;77;48.792;9.032;2022-12-22T12:34:19;5.90;;;2.13;;
177;SDS011;77;48.792;9.032;2022-12-22T12:36:47;6.27;;;2.10;;
177;SDS011;77;48.792;9.032;2022-12-22T12:39:14;9.23;;;1.80;;
177;SDS011;77;48.792;9.032;2022-12-22T12:41:45;3.87;;;1.90;;
177;SDS011;77;48.792;9.032;2022-12-22T12:44:14;3.80;;;1.70;;
177;SDS011;77;48.792;9.032;2022-12-22T12:52:07;4.60;;;1.97;;
177;SDS011;77;48.792;9.032;2022-12-22T12:54:35;3.77;;;1.80;;
177;SDS011;77;48.792;9.032;2022-12-22T12:57:04;4.70;;;1.87;;
177;SDS011;77;48.792;9.032;2022-12-22T13:02:31;4.23;;;2.00;;
177;SDS011;77;48.792;9.032;2022-12-22T13:05:00;4.40;;;1.90;;
177;SDS011;77;48.792;9.032;2022-12-22T13:10:17;3.60;;;1.83;;
177;SDS011;77;48.792;9.032;2022-12-22T13:12:47;3.60;;;1.87;;
177;SDS011;77;48.792;9.032;2022-12-22T13:15:25;4.70;;;1.87;;
177;SDS011;77;48.792;9.032;2022-12-22T13:17:52;4.80;;;1.80;;
177;SDS011;77;48.792;9.032;2022-12-22T13:20:19;4.90;;;1.90;;
177;SDS011;77;48.792;9.032;2022-12-22T13:22:45;4.27;;;1.90;;
177;SDS011;77;48.792;9.032;2022-12-22T13:25:15;3.50;;;1.83;;
177;SDS011;77;48.792;9.032;2022-12-22T13:27:40;4.77;;;1.97;;
177;SDS011;77;48.792;9.032;2022-12-22T13:30:10;5.63;;;1.90;;
177;SDS011;77;48.792;9.032;2022-12-22T13:32:36;5.00;;;2.10;;
177;SDS011;77;48.792;9.032;2022-12-22T13:35:10;5.07;;;1.93;;
177;SDS011;77;48.792;9.032;2022-12-22T13:37:38;5.40;;;2.00;;
177;SDS011;77;48.792;9.032;2022-12-22T13:40:08;6.07;;;2.10;;
177;SDS011;77;48.792;9.032;2022-12-22T13:42:34;4.20;;;2.00;;
177;SDS011;77;48.792;9.032;2022-12-22T13:44:59;4.90;;;1.80;;
177;SDS011;77;48.792;9.032;2022-12-22T13:47:24;2.97;;;1.70;;
177;SDS011;77;48.792;9.032;2022-12-22T13:49:50;2.67;;;1.60;;
177;SDS011;77;48.792;9.032;2022-12-22T13:52:17;7.37;;;2.10;;
177;SDS011;77;48.792;9.032;2022-12-22T13:54:42;5.47;;;2.00;;
177;SDS011;77;48.792;9.032;2022-12-22T13:57:12;4.00;;;1.70;;
177;SDS011;77;48.792;9.032;2022-12-22T13:59:39;4.40;;;2.00;;
177;SDS011;77;48.792;9.032;2022-12-22T14:02:12;7.60;;;2.00;;
177;SDS011;77;48.792;9.032;2022-12-22T14:04:38;6.90;;;1.97;;
177;SDS011;77;48.792;9.032;2022-12-22T14:07:08;5.27;;;1.97;;
177;SDS011;77;48.792;9.032;2022-12-22T14:09:35;6.90;;;2.13;;
177;SDS011;77;48.792;9.032;2022-12-22T14:12:02;5.10;;;1.87;;
177;SDS011;77;48.792;9.032;2022-12-22T14:14:30;6.10;;;2.40;;
177;SDS011;77;48.792;9.032;2022-12-22T14:16:59;4.20;;;2.10;;
177;SDS011;77;48.792;9.032;2022-12-22T14:19:24;9.50;;;2.40;;
177;SDS011;77;48.792;9.032;2022-12-22T14:21:53;4.33;;;1.90;;
177;SDS011;77;48.792;9.032;2022-12-22T14:24:23;5.50;;;2.30;;
177;SDS011;77;48.792;9.032;2022-12-22T14:26:50;6.93;;;2.50;;
177;SDS011;77;48.792;9.032;2022-12-22T14:29:16;4.50;;;2.17;;
177;SDS011;77;48.792;9.032;2022-12-22T14:31:49;7.80;;;2.53;;
177;SDS011;77;48.792;9.032;2022-12-22T14:34:22;6.43;;;2.53;;
177;SDS011;77;48.792;9.032;2022-12-22T14:36:49;6.23;;;2.33;;
177;SDS011;77;48.792;9.032;2022-12-22T14:39:19;8.53;;;2.50;;
177;SDS011;77;48.792;9.032;2022-12-22T14:41:46;8.00;;;2.70;;
177;SDS011;77;48.792;9.032;2022-12-22T14:44:14;6.97;;;2.60;;
177;SDS011;77;48.792;9.032;2022-12-22T14:46:40;9.67;;;3.20;;
177;SDS011;77;48.792;9.032;2022-12-22T14:49:10;9.30;;;2.53;;
177;SDS011;77;48.792;9.032;2022-12-22T14:51:35;12.17;;;3.10;;
177;SDS011;77;48.792;9.032;2022-12-22T14:54:01;15.03;;;3.30;;
177;SDS011;77;48.792;9.032;2022-12-22T14:56:26;11.17;;;3.07;;
177;SDS011;77;48.792;9.032;2022-12-22T14:58:51;10.13;;;3.17;;
177;SDS011;77;48.792;9.032;2022-12-22T15:01:32;13.10;;;3.03;;
177;SDS011;77;48.792;9.032;2022-12-22T15:03:58;11.00;;;3.30;;
177;SDS011;77;48.792;9.032;2022-12-22T15:06:30;8.93;;;2.93;;
177;SDS011;77;48.792;9.032;2022-12-22T15:09:05;10.60;;;3.17;;
177;SDS011;77;48.792;9.032;2022-12-22T15:11:31;13.17;;;2.83;;
177;SDS011;77;48.792;9.032;2022-12-22T15:13:56;11.23;;;2.80;;
177;SDS011;77;48.792;9.032;2022-12-22T15:16:22;8.17;;;2.87;;
177;SDS011;77;48.792;9.032;2022-12-22T15:18:48;7.93;;;2.73;;
177;SDS011;77;48.792;9.032;2022-12-22T15:21:15;8.33;;;3.10;;
177;SDS011;77;48.792;9.032;2022-12-22T15:23:40;10.67;;;2.90;;
177;SDS011;77;48.792;9.032;2022-12-22T15:26:05;9.83;;;3.07;;
177;SDS011;77;48.792;9.032;2022-12-22T15:28:31;8.63;;;2.90;;
177;SDS011;77;48.792;9.032;2022-12-22T15:30:56;8.67;;;2.93;;
177;SDS011;77;48.792;9.032;2022-12-22T15:33:22;9.23;;;2.80;;
177;SDS011;77;48.792;9.032;2022-12-22T15:35:48;12.30;;;3.20;;
177;SDS011;77;48.792;9.032;2022-12-22T15:38:14;9.00;;;3.00;;
177;SDS011;77;48.792;9.032;2022-12-22T15:40:40;10.70;;;3.20;;
177;SDS011;77;48.792;9.032;2022-12-22T15:43:05;10.17;;;3.10;;
177;SDS011;77;48.792;9.032;2022-12-22T15:45:30;11.27;;;3.40;;
177;SDS011;77;48.792;9.032;2022-12-22T15:47:55;9.17;;;2.80;;
177;SDS011;77;48.792;9.032;2022-12-22T15:50:22;8.17;;;2.80;;
177;SDS011;77;48.792;9.032;2022-12-22T15:52:49;6.43;;;2.70;;
177;SDS011;77;48.792;9.032;2022-12-22T15:55:15;11.47;;;3.17;;
177;SDS011;77;48.792;9.032;2022-12-22T15:57:41;6.80;;;2.70;;
177;SDS011;77;48.792;9.032;2022-12-22T16:00:08;8.30;;;2.60;;
177;SDS011;77;48.792;9.032;2022-12-22T16:02:33;9.50;;;2.90;;
177;SDS011;77;48.792;9.032;2022-12-22T16:04:59;5.80;;;2.70;;
177;SDS011;77;48.792;9.032;2022-12-22T16:07:24;10.20;;;3.70;;
177;SDS011;77;48.792;9.032;2022-12-22T16:09:50;8.43;;;2.70;;
177;SDS011;77;48.792;9.032;2022-12-22T16:12:16;9.20;;;2.63;;
177;SDS011;77;48.792;9.032;2022-12-22T16:14:42;10.40;;;3.57;;
177;SDS011;77;48.792;9.032;2022-12-22T16:17:10;9.97;;;3.47;;
177;SDS011;77;48.792;9.032;2022-12-22T16:19:37;11.30;;;3.10;;
177;SDS011;77;48.792;9.032;2022-12-22T16:22:02;12.07;;;3.17;;
177;SDS011;77;48.792;9.032;2022-12-22T16:24:28;7.33;;;2.93;;
177;SDS011;77;48.792;9.032;2022-12-22T16:26:56;10.37;;;3.40;;
177;SDS011;77;48.792;9.032;2022-12-22T16:29:22;10.17;;;3.00;;
177;SDS011;77;48.792;9.032;2022-12-22T16:31:47;10.63;;;3.10;;
177;SDS011;77;48.792;9.032;2022-12-22T16:34:13;10.93;;;3.03;;
177;SDS011;77;48.792;9.032;2022-12-22T16:36:38;12.20;;;3.10;;
177;SDS011;77;48.792;9.032;2022-12-22T16:39:03;7.67;;;2.60;;
177;SDS011;77;48.792;9.032;2022-12-22T16:41:28;12.03;;;3.00;;
177;SDS011;77;48.792;9.032;2022-12-22T16:43:55;13.63;;;3.47;;
177;SDS011;77;48.792;9.032;2022-12-22T16:46:21;14.97;;;3.47;;
177;SDS011;77;48.792;9.032;2022-12-22T16:48:47;9.97;;;3.27;;
177;SDS011;77;48.792;9.032;2022-12-22T16:51:14;9.87;;;3.50;;
177;SDS011;77;48.792;9.032;2022-12-22T16:53:40;7.67;;;3.10;;
177;SDS011;77;48.792;9.032;2022-12-22T16:56:16;12.63;;;3.97;;
177;SDS011;77;48.792;9.032;2022-12-22T16:58:41;11.07;;;3.17;;
177;SDS011;77;48.792;9.032;2022-12-22T17:01:08;13.70;;;3.70;;
177;SDS011;77;48.792;9.032;2022-12-22T17:03:35;14.17;;;4.27;;
177;SDS011;77;48.792;9.032;2022-12-22T17:06:00;12.10;;;3.90;;
177;SDS011;77;48.792;9.032;2022-12-22T17:08:26;10.40;;;4.00;;
177;SDS011;77;48.792;9.032;2022-12-22T17:10:52;11.07;;;3.97;;
177;SDS011;77;48.792;9.032;2022-12-22T17:13:17;11.97;;;4.00;;
177;SDS011;77;48.792;9.032;2022-12-22T17:15:43;15.40;;;4.73;;
177;SDS011;77;48.792;9.032;2022-12-22T17:18:14;11.50;;;4.00;;
177;SDS011;77;48.792;9.032;2022-12-22T17:20:39;14.60;;;4.07;;
177;SDS011;77;48.792;9.032;2022-12-22T17:23:05;12.53;;;4.10;;
177;SDS011;77;48.792;9.032;2022-12-22T17:25:30;13.40;;;4.33;;
177;SDS011;77;48.792;9.032;2022-12-22T17:27:56;16.00;;;4.17;;
177;SDS011;77;48.792;9.032;2022-12-22T17:30:22;17.37;;;4.37;;
177;SDS011;77;48.792;9.032;2022-12-22T17:32:48;19.80;;;4.53;;
177;SDS011;77;48.792;9.032;2022-12-22T17:35:15;17.30;;;4.63;;
177;SDS011;77;48.792;9.032;2022-12-22T17:37:40;16.00;;;4.90;;
177;SDS011;77;48.792;9.032;2022-12-22T17:40:06;19.57;;;4.90;;
177;SDS011;77;48.792;9.032;2022-12-22T17:42:32;11.93;;;4.00;;
177;SDS011;77;48.792;9.032;2022-12-22T17:44:57;11.30;;;3.30;;
177;SDS011;77;48.792;9.032;2022-12-22T17:47:22;18.20;;;4.27;;
177;SDS011;77;48.792;9.032;2022-12-22T17:49:47;15.93;;;4.20;;
177;SDS011;77;48.792;9.032;2022-12-22T17:52:15;17.97;;;3.90;;
177;SDS011;77;48.792;9.032;2022-12-22T17:54:41;23.00;;;4.70;;
177;SDS011;77;48.792;9.032;2022-12-22T17:57:09;20.47;;;4.80;;
177;SDS011;77;48.792;9.032;2022-12-22T17:59:36;16.10;;;4.30;;
177;SDS011;77;48.792;9.032;2022-12-22T18:02:02;20.33;;;5.03;;
177;SDS011;77;48.792;9.032;2022-12-22T18:04:27;17.30;;;4.50;;
177;SDS011;77;48.792;9.032;2022-12-22T18:06:52;20.13;;;4.73;;
177;SDS011;77;48.792;9.032;2022-12-22T18:09:19;19.33;;;4.50;;
177;SDS011;77;48.792;9.032;2022-12-22T18:11:45;23.90;;;5.47;;
177;SDS011;77;48.792;9.032;2022-12-22T18:14:10;18.90;;;5.10;;
177;SDS011;77;48.792;9.032;2022-12-22T18:16:36;21.30;;;5.23;;
177;SDS011;77;48.792;9.032;2022-12-22T18:19:01;17.43;;;5.97;;
177;SDS011;77;48.792;9.032;2022-12-22T18:21:26;16.37;;;4.63;;
177;SDS011;77;48.792;9.032;2022-12-22T18:23:51;21.20;;;5.57;;
177;SDS011;77;48.792;9.032;2022-12-22T18:26:20;19.37;;;5.10;;
177;SDS011;77;48.792;9.032;2022-12-22T18:28:45;18.90;;;4.70;;
177;SDS011;77;48.792;9.032;2022-12-22T18:31:10;16.20;;;4.63;;
177;SDS011;77;48.792;9.032;2022-12-22T18:33:35;15.17;;;4.63;;
177;SDS011;77;48.792;9.032;2022-12-22T18:36:01;15.83;;;5.00;;
177;SDS011;77;48.792;9.032;2022-12-22T18:38:26;19.80;;;5.37;;
177;SDS011;77;48.792;9.032;2022-12-22T18:40:53;15.87;;;4.67;;
177;SDS011;77;48.792;9.032;2022-12-22T18:43:20;13.97;;;4.43;;
177;SDS011;77;48.792;9.032;2022-12-22T18:45:45;23.27;;;5.43;;
177;SDS011;77;48.792;9.032;2022-12-22T18:48:11;16.00;;;4.60;;
177;SDS011;77;48.792;9.032;2022-12-22T18:50:36;18.30;;;4.53;;
177;SDS011;77;48.792;9.032;2022-12-22T18:53:02;18.10;;;5.43;;
177;SDS011;77;48.792;9.032;2022-12-22T18:55:30;21.97;;;5.17;;
177;SDS011;77;48.792;9.032;2022-12-22T18:57:56;18.13;;;4.83;;
177;SDS011;77;48.792;9.032;2022-12-22T19:00:24;25.53;;;5.57;;
177;SDS011;77;48.792;9.032;2022-12-22T19:02:49;14.70;;;5.00;;
177;SDS011;77;48.792;9.032;2022-12-22T19:05:15;18.00;;;4.93;;
177;SDS011;77;48.792;9.032;2022-12-22T19:07:41;15.37;;;4.70;;
177;SDS011;77;48.792;9.032;2022-12-22T19:10:06;15.57;;;5.00;;
177;SDS011;77;48.792;9.032;2022-12-22T19:12:32;16.77;;;4.87;;
177;SDS011;77;48.792;9.032;2022-12-22T19:14:58;18.40;;;5.10;;
177;SDS011;77;48.792;9.032;2022-12-22T19:17:27;17.70;;;4.63;;
177;SDS011;77;48.792;9.032;2022-12-22T19:19:53;19.50;;;5.07;;
177;SDS011;77;48.792;9.032;2022-12-22T19:22:18;17.83;;;5.17;;
177;SDS011;77;48.792;9.032;2022-12-22T19:24:43;18.00;;;4.90;;
177;SDS011;77;48.792;9.032;2022-12-22T19:27:08;16.33;;;4.73;;
177;SDS011;77;48.792;9.032;2022-12-22T19:29:37;16.87;;;5.10;;
177;SDS011;77;48.792;9.032;2022-12-22T19:32:03;13.90;;;4.70;;
177;SDS011;77;48.792;9.032;2022-12-22T19:34:29;16.33;;;4.90;;
177;SDS011;77;48.792;9.032;2022-12-22T19:36:55;13.50;;;4.43;;
177;SDS011;77;48.792;9.032;2022-12-22T19:39:20;15.77;;;4.60;;
177;SDS011;77;48.792;9.032;2022-12-22T19:41:46;18.87;;;4.60;;
177;SDS011;77;48.792;9.032;2022-12-22T19:44:15;13.57;;;4.40;;
177;SDS011;77;48.792;9.032;2022-12-22T19:46:41;15.33;;;4.80;;
177;SDS011;77;48.792;9.032;2022-12-22T19:49:07;21.67;;;5.77;;
177;SDS011;77;48.792;9.032;2022-12-22T19:51:35;19.63;;;5.70;;
177;SDS011;77;48.792;9.032;2022-12-22T19:54:00;16.87;;;5.37;;
177;SDS011;77;48.792;9.032;2022-12-22T19:56:26;16.73;;;6.20;;
177;SDS011;77;48.792;9.032;2022-12-22T19:58:52;18.23;;;5.63;;
177;SDS011;77;48.792;9.032;2022-12-22T20:01:18;12.93;;;4.87;;
177;SDS011;77;48.792;9.032;2022-12-22T20:03:43;15.53;;;5.13;;
177;SDS011;77;48.792;9.032;2022-12-22T20:06:08;16.83;;;5.07;;
177;SDS011;77;48.792;9.032;2022-12-22T20:08:35;14.87;;;5.00;;
177;SDS011;77;48.792;9.032;2022-12-22T20:11:00;14.90;;;4.90;;
177;SDS011;77;48.792;9.032;2022-12-22T20:13:26;11.50;;;4.57;;
177;SDS011;77;48.792;9.032;2022-12-22T20:15:54;20.20;;;4.67;;
177;SDS011;77;48.792;9.032;2022-12-22T20:18:20;13.60;;;4.97;;
177;SDS011;77;48.792;9.032;2022-12-22T20:20:46;17.23;;;4.50;;
177;SDS011;77;48.792;9.032;2022-12-22T20:23:13;15.20;;;4.90;;
177;SDS011;77;48.792;9.032;2022-12-22T20:25:40;21.10;;;4.50;;
177;SDS011;77;48.792;9.032;2022-12-22T20:28:13;13.13;;;4.13;;
177;SDS011;77;48.792;9.032;2022-12-22T20:30:39;14.77;;;4.50;;
177;SDS011;77;48.792;9.032;2022-12-22T20:33:04;11.63;;;4.10;;
177;SDS011;77;48.792;9.032;2022-12-22T20:35:29;15.10;;;4.17;;
177;SDS011;77;48.792;9.032;2022-12-22T20:37:54;13.53;;;4.03;;
177;SDS011;77;48.792;9.032;2022-12-22T20:40:21;14.10;;;4.03;;
177;SDS011;77;48.792;9.032;2022-12-22T20:42:48;10.80;;;4.07;;
177;SDS011;77;48.792;9.032;2022-12-22T20:45:13;13.73;;;4.40;;
177;SDS011;77;48.792;9.032;2022-12-22T20:47:38;16.67;;;4.70;;
177;SDS011;77;48.792;9.032;2022-12-22T20:50:06;14.03;;;4.10;;
177;SDS011;77;48.792;9.032;2022-12-22T20:52:35;13.80;;;4.27;;
177;SDS011;77;48.792;9.032;2022-12-22T20:55:00;13.20;;;4.30;;
177;SDS011;77;48.792;9.032;2022-12-22T20:57:25;16.07;;;4.63;;
177;SDS011;77;48.792;9.032;2022-12-22T20:59:52;10.07;;;3.93;;
177;SDS011;77;48.792;9.032;2022-12-22T21:02:19;8.20;;;3.23;;
177;SDS011;77;48.792;9.032;2022-12-22T21:04:44;8.83;;;3.40;;
177;SDS011;77;48.792;9.032;2022-12-22T21:07:10;10.87;;;3.47;;
177;SDS011;77;48.792;9.032;2022-12-22T21:09:35;12.90;;;4.30;;
177;SDS011;77;48.792;9.032;2022-12-22T21:12:00;8.47;;;3.20;;
177;SDS011;77;48.792;9.032;2022-12-22T21:14:25;8.50;;;3.10;;
177;SDS011;77;48.792;9.032;2022-12-22T21:16:52;6.33;;;3.00;;
177;SDS011;77;48.792;9.032;2022-12-22T21:19:17;8.50;;;2.90;;
177;SDS011;77;48.792;9.032;2022-12-22T21:21:42;7.93;;;2.80;;
177;SDS011;77;48.792;9.032;2022-12-22T21:24:07;6.70;;;2.87;;
177;SDS011;77;48.792;9.032;2022-12-22T21:26:33;9.87;;;2.87;;
177;SDS011;77;48.792;9.032;2022-12-22T21:28:59;5.83;;;2.60;;
177;SDS011;77;48.792;9.032;2022-12-22T21:31:25;8.47;;;2.87;;
177;SDS011;77;48.792;9.032;2022-12-22T21:33:51;6.40;;;2.60;;
177;SDS011;77;48.792;9.032;2022-12-22T21:36:18;5.67;;;2.40;;
177;SDS011;77;48.792;9.032;2022-12-22T21:38:44;6.70;;;2.20;;
177;SDS011;77;48.792;9.032;2022-12-22T21:41:09;7.60;;;2.20;;
177;SDS011;77;48.792;9.032;2022-12-22T21:43:35;5.73;;;2.33;;
177;SDS011;77;48.792;9.032;2022-12-22T21:46:00;6.23;;;2.27;;
177;SDS011;77;48.792;9.032;2022-12-22T21:48:25;4.90;;;2.30;;
177;SDS011;77;48.792;9.032;2022-12-22T21:50:52;5.67;;;2.40;;
177;SDS011;77;48.792;9.032;2022-12-22T21:53:17;9.20;;;2.47;;
177;SDS011;77;48.792;9.032;2022-12-22T21:55:42;8.00;;;2.60;;
177;SDS011;77;48.792;9.032;2022-12-22T21:58:09;6.03;;;2.70;;
177;SDS011;77;48.792;9.032;2022-12-22T22:00:35;9.20;;;2.97;;
177;SDS011;77;48.792;9.032;2022-12-22T22:03:02;9.80;;;3.40;;
177;SDS011;77;48.792;9.032;2022-12-22T22:05:28;8.10;;;3.50;;
177;SDS011;77;48.792;9.032;2022-12-22T22:07:55;6.97;;;3.07;;
177;SDS011;77;48.792;9.032;2022-12-22T22:10:22;11.30;;;3.20;;
177;SDS011;77;48.792;9.032;2022-12-22T22:12:47;8.60;;;3.30;;
177;SDS011;77;48.792;9.032;2022-12-22T22:15:12;9.83;;;3.57;;
177;SDS011;77;48.792;9.032;2022-12-22T22:17:38;8.73;;;3.83;;
177;SDS011;77;48.792;9.032;2022-12-22T22:20:03;8.30;;;3.50;;
177;SDS011;77;48.792;9.032;2022-12-22T22:22:29;6.73;;;2.90;;
177;SDS011;77;48.792;9.032;2022-12-22T22:24:55;9.63;;;3.37;;
177;SDS011;77;48.792;9.032;2022-12-22T22:27:21;7.30;;;2.93;;
177;SDS011;77;48.792;9.032;2022-12-22T22:29:48;5.43;;;3.00;;
177;SDS011;77;48.792;9.032;2022-12-22T22:32:13;10.97;;;3.10;;
177;SDS011;77;48.792;9.032;2022-12-22T22:34:38;8.27;;;2.90;;
177;SDS011;77;48.792;9.032;2022-12-22T22:37:04;6.23;;;2.63;;
177;SDS011;77;48.792;9.032;2022-12-22T22:39:29;11.40;;;3.00;;
177;SDS011;77;48.792;9.032;2022-12-22T22:41:56;6.97;;;3.23;;
177;SDS011;77;48.792;9.032;2022-12-22T22:44:21;6.40;;;3.00;;
177;SDS011;77;48.792;9.032;2022-12-22T22:46:46;7.83;;;3.20;;
177;SDS011;77;48.792;9.032;2022-12-22T22:49:12;8.10;;;3.00;;
177;SDS011;77;48.792;9.032;2022-12-22T22:51:37;7.50;;;2.80;;
177;SDS011;77;48.792;9.032;2022-12-22T22:54:02;12.53;;;3.23;;
177;SDS011;77;48.792;9.032;2022-12-22T22:56:27;7.97;;;3.20;;
177;SDS011;77;48.792;9.032;2022-12-22T22:58:54;6.27;;;2.90;;
177;SDS011;77;48.792;9.032;2022-12-22T23:01:19;6.07;;;2.73;;
177;SDS011;77;48.792;9.032;2022-12-22T23:03:44;8.43;;;2.80;;
177;SDS011;77;48.792;9.032;2022-12-22T23:06:10;7.40;;;2.70;;
177;SDS011;77;48.792;9.032;2022-12-22T23:08:35;7.67;;;2.77;;
177;SDS011;77;48.792;9.032;2022-12-22T23:11:01;9.03;;;2.77;;
177;SDS011;77;48.792;9.032;2022-12-22T23:13:26;6.20;;;2.70;;
177;SDS011;77;48.792;9.032;2022-12-22T23:15:54;6.27;;;2.60;;
177;SDS011;77;48.792;9.032;2022-12-22T23:18:19;9.70;;;2.70;;
177;SDS011;77;48.792;9.032;2022-12-22T23:20:44;5.80;;;2.50;;